createdAt,value
2019-02-27T00:02:04.587Z,4.50
2019-02-27T00:04:38.082Z,4.40
2019-02-27T00:07:13.739Z,4.30
2019-02-27T00:09:46.892Z,4.30
2019-02-27T00:12:22.119Z,4.30
2019-02-27T00:14:56.836Z,4.30
2019-02-27T00:17:29.319Z,4.30
2019-02-27T00:20:04.997Z,4.30
2019-02-27T00:22:39.170Z,4.40
2019-02-27T00:25:12.023Z,4.40
2019-02-27T00:27:48.702Z,4.40
2019-02-27T00:30:19.657Z,4.30
2019-02-27T00:32:51.272Z,4.30
2019-02-27T00:35:20.186Z,4.40
2019-02-27T00:37:51.843Z,4.40
2019-02-27T00:40:20.636Z,4.30
2019-02-27T00:42:54.079Z,4.30
2019-02-27T00:45:21.075Z,4.40
2019-02-27T00:47:53.018Z,4.50
2019-02-27T00:50:21.488Z,4.50
2019-02-27T00:52:51.658Z,4.60
2019-02-27T00:55:20.943Z,4.50
2019-02-27T00:57:51.814Z,4.60
2019-02-27T01:00:21.322Z,4.70
2019-02-27T01:02:52.690Z,4.70
2019-02-27T01:05:21.683Z,4.70
2019-02-27T01:07:53.988Z,4.70
2019-02-27T01:10:22.035Z,4.60
2019-02-27T01:12:51.394Z,4.60
2019-02-27T01:15:20.784Z,4.60
2019-02-27T01:17:50.201Z,4.50
2019-02-27T01:20:19.647Z,4.50
2019-02-27T01:22:48.952Z,4.50
2019-02-27T01:25:18.274Z,4.60
2019-02-27T01:27:47.676Z,4.60
2019-02-27T01:30:17.005Z,4.60
2019-02-27T01:32:46.403Z,4.70
2019-02-27T01:35:18.707Z,4.70
2019-02-27T01:37:46.817Z,4.70
2019-02-27T01:40:17.958Z,4.70
2019-02-27T01:42:47.313Z,4.70
2019-02-27T01:45:20.578Z,4.70
2019-02-27T01:47:48.095Z,4.70
2019-02-27T01:50:33.957Z,4.70
2019-02-27T01:53:07.000Z,4.70
2019-02-27T01:55:34.401Z,4.70
2019-02-27T01:58:03.831Z,4.70
2019-02-27T02:00:33.234Z,4.70
2019-02-27T02:03:02.737Z,4.70
2019-02-27T02:05:32.363Z,4.70
2019-02-27T02:08:01.853Z,4.70
2019-02-27T02:10:34.220Z,4.70
2019-02-27T02:13:30.721Z,4.70
2019-02-27T02:16:43.123Z,4.70
2019-02-27T02:19:56.990Z,4.70
2019-02-27T02:23:19.575Z,4.70
2019-02-27T02:26:21.935Z,4.70
2019-02-27T02:29:28.540Z,4.60
2019-02-27T02:32:20.624Z,4.60
2019-02-27T02:35:20.166Z,4.50
2019-02-27T02:38:14.027Z,4.50
2019-02-27T02:41:14.615Z,4.40
2019-02-27T02:44:21.000Z,4.40
2019-02-27T02:47:37.968Z,4.40
2019-02-27T02:50:37.081Z,4.30
2019-02-27T02:53:36.386Z,4.30
2019-02-27T02:56:24.794Z,4.20
2019-02-27T02:59:44.763Z,4.20
2019-02-27T03:02:36.274Z,4.10
2019-02-27T03:05:42.644Z,4.00
2019-02-27T03:08:40.090Z,3.90
2019-02-27T03:11:56.845Z,3.80
2019-02-27T03:15:01.943Z,3.70
2019-02-27T03:18:26.231Z,3.70
2019-02-27T03:21:27.381Z,3.60
2019-02-27T03:24:20.140Z,3.50
2019-02-27T03:27:13.854Z,3.50
2019-02-27T03:30:36.269Z,3.40
2019-02-27T03:33:36.733Z,3.40
2019-02-27T03:36:31.830Z,3.30
2019-02-27T03:39:25.398Z,3.20
2019-02-27T03:42:38.698Z,3.20
2019-02-27T03:45:30.631Z,3.10
2019-02-27T03:48:28.349Z,3.10
2019-02-27T03:51:16.620Z,3.10
2019-02-27T03:54:03.003Z,3.00
2019-02-27T03:57:08.114Z,3.00
2019-02-27T04:00:19.356Z,3.00
2019-02-27T04:03:18.324Z,3.10
2019-02-27T04:06:20.155Z,3.10
2019-02-27T04:08:58.919Z,3.00
2019-02-27T04:11:28.803Z,2.90
2019-02-27T04:14:04.789Z,2.80
2019-02-27T04:16:31.188Z,2.80
2019-02-27T04:19:04.563Z,2.70
2019-02-27T04:21:31.739Z,2.70
2019-02-27T04:24:01.088Z,2.60
2019-02-27T04:26:30.421Z,2.60
2019-02-27T04:29:04.124Z,2.50
2019-02-27T04:31:30.874Z,2.50
2019-02-27T04:34:01.197Z,2.50
2019-02-27T04:36:30.731Z,2.40
2019-02-27T04:39:02.391Z,2.40
2019-02-27T04:41:31.203Z,2.40
2019-02-27T04:44:05.284Z,2.30
2019-02-27T04:46:31.614Z,2.30
2019-02-27T04:49:04.086Z,2.40
2019-02-27T04:51:31.927Z,2.40
2019-02-27T04:54:01.278Z,2.40
2019-02-27T04:56:30.715Z,2.30
2019-02-27T04:59:00.193Z,2.30
2019-02-27T05:01:29.670Z,2.30
2019-02-27T05:04:02.213Z,2.20
2019-02-27T05:06:31.738Z,2.20
2019-02-27T05:09:01.246Z,2.30
2019-02-27T05:11:30.618Z,2.30
2019-02-27T05:13:59.936Z,2.30
2019-02-27T05:16:29.473Z,2.30
2019-02-27T05:19:09.422Z,2.30
2019-02-27T05:21:38.897Z,2.30
2019-02-27T05:24:08.657Z,2.30
2019-02-27T05:26:38.234Z,2.20
2019-02-27T05:29:07.734Z,2.20
2019-02-27T05:31:37.295Z,2.20
2019-02-27T05:34:06.999Z,2.10
2019-02-27T05:36:36.489Z,2.00
2019-02-27T05:39:07.100Z,2.00
2019-02-27T05:41:36.646Z,2.00
2019-02-27T05:44:07.464Z,2.00
2019-02-27T05:46:38.326Z,1.90
2019-02-27T05:49:08.297Z,1.90
2019-02-27T05:51:40.934Z,1.90
2019-02-27T05:54:10.376Z,1.80
2019-02-27T05:56:43.302Z,1.70
2019-02-27T05:59:12.545Z,1.70
2019-02-27T06:01:41.877Z,1.70
2019-02-27T06:04:11.176Z,1.70
2019-02-27T06:06:40.478Z,1.60
2019-02-27T06:09:10.331Z,1.60
2019-02-27T06:11:40.248Z,1.60
2019-02-27T06:14:09.476Z,1.60
2019-02-27T06:16:40.736Z,1.60
2019-02-27T06:19:09.694Z,1.50
2019-02-27T06:21:38.973Z,1.60
2019-02-27T06:24:11.679Z,1.60
2019-02-27T06:26:39.134Z,1.60
2019-02-27T06:29:08.473Z,1.60
2019-02-27T06:31:39.520Z,1.60
2019-02-27T06:34:08.665Z,1.60
2019-02-27T06:36:41.854Z,1.60
2019-02-27T06:39:08.896Z,1.70
2019-02-27T06:41:41.964Z,1.70
2019-02-27T06:44:11.236Z,1.80
2019-02-27T06:46:40.605Z,1.80
2019-02-27T06:49:09.908Z,1.90
2019-02-27T06:51:39.292Z,2.00
2019-02-27T06:54:08.553Z,2.10
2019-02-27T06:56:37.884Z,2.30
2019-02-27T06:59:07.289Z,2.60
2019-02-27T07:01:36.600Z,3.00
2019-02-27T07:04:06.689Z,3.20
2019-02-27T07:06:36.959Z,3.40
2019-02-27T07:09:11.298Z,3.80
2019-02-27T07:11:38.164Z,4.20
2019-02-27T07:14:07.470Z,4.50
2019-02-27T07:16:36.768Z,4.90
2019-02-27T07:19:06.022Z,5.30
2019-02-27T07:21:35.298Z,5.70
2019-02-27T07:24:04.610Z,6.00
2019-02-27T07:26:33.890Z,6.20
2019-02-27T07:29:03.172Z,6.40
2019-02-27T07:31:33.858Z,6.70
2019-02-27T07:34:03.133Z,7.10
2019-02-27T07:36:38.324Z,7.50
2019-02-27T07:39:06.895Z,8.00
2019-02-27T07:41:36.246Z,8.60
2019-02-27T07:44:05.542Z,9.40
2019-02-27T07:46:38.573Z,10.50
2019-02-27T07:49:07.814Z,11.70
2019-02-27T07:51:40.217Z,12.60
2019-02-27T07:54:13.813Z,13.10
2019-02-27T07:56:43.092Z,13.70
2019-02-27T07:59:12.545Z,14.50
2019-02-27T08:01:43.989Z,15.20
2019-02-27T08:04:12.747Z,16.40
2019-02-27T08:06:42.009Z,17.00
2019-02-27T08:09:11.325Z,17.90
2019-02-27T08:11:40.569Z,18.40
2019-02-27T08:14:09.862Z,18.70
2019-02-27T08:16:39.116Z,18.70
2019-02-27T08:19:08.832Z,19.10
2019-02-27T08:21:39.295Z,19.20
2019-02-27T08:24:08.620Z,19.50
2019-02-27T08:26:37.886Z,19.90
2019-02-27T08:29:07.187Z,20.00
2019-02-27T08:31:36.397Z,20.00
2019-02-27T08:34:05.655Z,20.40
2019-02-27T08:36:34.952Z,20.80
2019-02-27T08:39:04.857Z,21.80
2019-02-27T08:41:34.136Z,22.20
2019-02-27T08:44:03.404Z,22.20
2019-02-27T08:46:33.978Z,21.50
2019-02-27T08:49:03.637Z,21.90
2019-02-27T08:51:32.948Z,21.60
2019-02-27T08:54:02.215Z,21.80
2019-02-27T08:56:31.513Z,22.30
2019-02-27T08:59:05.039Z,22.40
2019-02-27T09:01:31.679Z,22.30
2019-02-27T09:04:00.946Z,22.00
2019-02-27T09:06:30.187Z,22.10
2019-02-27T09:08:59.478Z,22.40
2019-02-27T09:11:28.721Z,22.40
2019-02-27T09:14:01.882Z,22.90
2019-02-27T09:16:31.155Z,23.60
2019-02-27T09:19:00.424Z,23.80
2019-02-27T09:21:29.680Z,23.90
2019-02-27T09:23:58.928Z,24.40
2019-02-27T09:26:28.210Z,24.20
2019-02-27T09:28:57.496Z,24.40
2019-02-27T09:31:26.791Z,24.60
2019-02-27T09:33:55.985Z,24.60
2019-02-27T09:36:25.260Z,25.10
2019-02-27T09:38:57.373Z,24.70
2019-02-27T09:41:25.410Z,25.00
2019-02-27T09:43:54.703Z,25.20
2019-02-27T09:46:24.004Z,25.40
2019-02-27T09:48:53.331Z,24.70
2019-02-27T09:51:22.914Z,24.80
2019-02-27T09:53:52.213Z,25.20
2019-02-27T09:56:21.503Z,25.20
2019-02-27T09:58:50.783Z,25.30
2019-02-27T10:01:20.069Z,25.20
2019-02-27T10:03:51.988Z,24.60
2019-02-27T10:06:20.721Z,25.70
2019-02-27T10:08:50.065Z,25.20
2019-02-27T10:11:22.094Z,26.40
2019-02-27T10:13:50.251Z,26.80
2019-02-27T10:16:19.606Z,26.60
2019-02-27T10:18:48.921Z,27.00
2019-02-27T10:21:18.210Z,27.00
2019-02-27T10:23:47.502Z,26.40
2019-02-27T10:26:19.443Z,26.10
2019-02-27T10:28:47.857Z,25.60
2019-02-27T10:31:17.140Z,25.40
2019-02-27T10:33:46.438Z,25.80
2019-02-27T10:36:16.334Z,26.00
2019-02-27T10:38:45.694Z,25.80
2019-02-27T10:41:14.997Z,25.50
2019-02-27T10:43:44.332Z,25.50
2019-02-27T10:46:13.614Z,25.70
2019-02-27T10:48:42.940Z,25.60
2019-02-27T10:51:12.200Z,25.70
2019-02-27T10:53:41.499Z,25.70
2019-02-27T10:56:10.859Z,24.90
2019-02-27T10:58:40.113Z,24.80
2019-02-27T11:01:09.361Z,25.00
2019-02-27T11:03:38.645Z,25.30
2019-02-27T11:06:07.892Z,25.60
2019-02-27T11:08:37.180Z,25.20
2019-02-27T11:11:08.566Z,25.70
2019-02-27T11:13:37.389Z,26.20
2019-02-27T11:16:09.688Z,25.90
2019-02-27T11:18:38.945Z,26.20
2019-02-27T11:21:08.246Z,26.40
2019-02-27T11:23:40.843Z,26.50
2019-02-27T11:26:08.491Z,26.70
2019-02-27T11:28:37.776Z,27.30
2019-02-27T11:31:08.479Z,26.70
2019-02-27T11:33:38.072Z,27.30
2019-02-27T11:36:07.421Z,27.10
2019-02-27T11:38:36.669Z,27.10
2019-02-27T11:41:06.043Z,27.80
2019-02-27T11:43:37.894Z,28.10
2019-02-27T11:46:06.232Z,28.20
2019-02-27T11:48:35.550Z,27.40
2019-02-27T11:51:04.834Z,27.00
2019-02-27T11:53:35.950Z,27.30
2019-02-27T11:56:05.044Z,27.10
2019-02-27T11:58:35.261Z,27.00
2019-02-27T12:01:05.237Z,27.30
2019-02-27T12:03:34.491Z,27.50
2019-02-27T12:06:05.298Z,27.20
2019-02-27T12:08:34.705Z,27.30
2019-02-27T12:11:03.986Z,27.30
2019-02-27T12:13:34.868Z,27.20
2019-02-27T12:16:04.434Z,27.10
2019-02-27T12:18:34.514Z,27.00
2019-02-27T12:21:04.458Z,27.00
2019-02-27T12:23:33.757Z,27.10
2019-02-27T12:26:03.205Z,26.90
2019-02-27T12:28:43.236Z,26.90
2019-02-27T12:31:14.362Z,27.00
2019-02-27T12:33:43.553Z,27.10
2019-02-27T12:36:12.815Z,26.90
2019-02-27T12:38:42.563Z,26.60
2019-02-27T12:41:12.258Z,26.30
2019-02-27T12:44:13.576Z,26.30
2019-02-27T12:46:37.031Z,26.40
2019-02-27T12:52:48.133Z,26.50
2019-02-27T12:55:20.281Z,26.40
2019-02-27T12:57:49.563Z,25.80
2019-02-27T13:00:22.984Z,25.80
2019-02-27T13:02:52.542Z,26.40
2019-02-27T13:05:26.457Z,26.80
2019-02-27T13:07:57.002Z,26.80
2019-02-27T13:10:26.346Z,26.60
2019-02-27T13:12:56.014Z,26.70
2019-02-27T13:15:25.393Z,26.60
2019-02-27T13:17:57.663Z,27.20
2019-02-27T13:20:26.394Z,27.10
2019-02-27T13:22:55.718Z,27.20
2019-02-27T13:25:25.011Z,27.30
2019-02-27T13:27:54.360Z,26.50
2019-02-27T13:30:23.860Z,27.40
2019-02-27T13:32:53.247Z,27.30
2019-02-27T13:35:23.123Z,26.70
2019-02-27T13:37:53.158Z,26.80
2019-02-27T13:40:22.441Z,26.70
2019-02-27T13:42:53.419Z,26.50
2019-02-27T13:45:24.017Z,26.40
2019-02-27T13:47:53.348Z,26.00
2019-02-27T13:50:25.850Z,26.20
2019-02-27T13:52:53.711Z,26.40
2019-02-27T13:55:23.005Z,26.20
2019-02-27T13:57:52.263Z,26.70
2019-02-27T14:00:25.830Z,26.90
2019-02-27T14:02:55.195Z,26.70
2019-02-27T14:05:24.472Z,26.70
2019-02-27T14:07:57.117Z,26.70
2019-02-27T14:10:25.891Z,26.70
2019-02-27T14:12:55.205Z,26.70
2019-02-27T14:15:33.709Z,26.60
2019-02-27T14:18:03.039Z,26.70
2019-02-27T14:20:32.398Z,27.00
2019-02-27T14:23:01.732Z,26.30
2019-02-27T14:25:32.944Z,26.60
2019-02-27T14:28:01.984Z,26.90
2019-02-27T14:30:37.007Z,26.90
2019-02-27T14:33:06.339Z,26.50
2019-02-27T14:35:36.652Z,26.10
2019-02-27T14:38:06.271Z,26.30
2019-02-27T14:40:39.500Z,26.50
2019-02-27T14:43:07.059Z,26.50
2019-02-27T14:45:40.628Z,26.40
2019-02-27T14:48:08.316Z,26.40
2019-02-27T14:50:37.629Z,26.30
2019-02-27T14:53:06.963Z,25.80
2019-02-27T14:55:37.414Z,25.80
2019-02-27T14:58:06.731Z,25.90
2019-02-27T15:00:39.653Z,26.20
2019-02-27T15:03:06.934Z,26.40
2019-02-27T15:05:37.001Z,26.10
2019-02-27T15:08:07.227Z,26.30
2019-02-27T15:10:40.197Z,26.30
2019-02-27T15:13:07.462Z,26.10
2019-02-27T15:15:37.031Z,26.10
2019-02-27T15:18:06.324Z,25.90
2019-02-27T15:20:39.955Z,26.10
2019-02-27T15:23:06.562Z,26.10
2019-02-27T15:25:35.806Z,25.60
2019-02-27T15:28:05.074Z,24.80
2019-02-27T15:30:34.315Z,24.70
2019-02-27T15:33:05.007Z,24.50
2019-02-27T15:35:34.763Z,24.90
2019-02-27T15:38:04.006Z,24.70
2019-02-27T15:40:33.281Z,24.60
2019-02-27T15:43:11.013Z,24.50
2019-02-27T15:45:33.507Z,24.20
2019-02-27T15:48:06.265Z,24.30
2019-02-27T15:50:39.970Z,24.50
2019-02-27T15:53:14.679Z,24.10
2019-02-27T15:55:40.493Z,24.30
2019-02-27T15:58:09.825Z,24.10
2019-02-27T16:00:39.149Z,23.90
2019-02-27T16:03:11.806Z,23.80
2019-02-27T16:05:40.172Z,23.60
2019-02-27T16:08:09.437Z,23.50
2019-02-27T16:10:55.145Z,23.40
2019-02-27T16:13:43.535Z,23.10
2019-02-27T16:16:14.646Z,22.70
2019-02-27T16:18:50.144Z,22.10
2019-02-27T16:21:20.993Z,21.20
2019-02-27T16:23:50.596Z,20.60
2019-02-27T16:26:41.102Z,19.90
2019-02-27T16:29:10.594Z,18.80
2019-02-27T16:31:40.868Z,18.60
2019-02-27T16:34:24.187Z,17.70
2019-02-27T16:36:53.839Z,17.80
2019-02-27T16:39:45.757Z,17.40
2019-02-27T16:42:39.714Z,16.60
2019-02-27T16:45:11.507Z,17.00
2019-02-27T16:47:41.418Z,16.90
2019-02-27T16:50:13.683Z,16.70
2019-02-27T16:53:05.448Z,16.50
2019-02-27T16:55:36.904Z,16.20
2019-02-27T16:58:06.193Z,15.90
2019-02-27T17:00:48.469Z,15.60
2019-02-27T17:03:20.227Z,15.20
2019-02-27T17:06:14.101Z,14.90
2019-02-27T17:08:43.326Z,14.80
2019-02-27T17:11:15.475Z,14.70
2019-02-27T17:14:12.367Z,14.50
2019-02-27T17:16:45.955Z,14.30
2019-02-27T17:19:24.132Z,14.10
2019-02-27T17:21:58.807Z,13.90
2019-02-27T17:24:45.984Z,13.70
2019-02-27T17:27:20.363Z,13.50
2019-02-27T17:29:51.246Z,13.30
2019-02-27T17:32:20.577Z,13.10
2019-02-27T17:35:04.836Z,12.90
2019-02-27T17:37:47.385Z,12.70
2019-02-27T17:40:16.930Z,12.70
2019-02-27T17:42:46.669Z,12.50
2019-02-27T17:45:17.517Z,12.40
2019-02-27T17:47:57.686Z,12.20
2019-02-27T17:50:33.324Z,12.00
2019-02-27T17:53:02.755Z,11.80
2019-02-27T17:55:38.138Z,11.80
2019-02-27T17:58:11.541Z,11.70
2019-02-27T18:00:51.087Z,11.40
2019-02-27T18:03:20.854Z,11.40
2019-02-27T18:05:50.507Z,11.20
2019-02-27T18:08:20.113Z,11.10
2019-02-27T18:10:52.489Z,10.90
2019-02-27T18:13:21.872Z,10.80
2019-02-27T18:15:53.260Z,10.60
2019-02-27T18:18:22.685Z,10.50
2019-02-27T18:20:51.936Z,10.40
2019-02-27T18:23:21.980Z,10.30
2019-02-27T18:25:52.285Z,10.20
2019-02-27T18:28:21.704Z,10.10
2019-02-27T18:30:53.036Z,9.90
2019-02-27T18:33:22.136Z,9.80
2019-02-27T18:35:56.550Z,9.70
2019-02-27T18:44:22.736Z,9.50
2019-02-27T18:47:02.416Z,9.40
2019-02-27T18:49:51.901Z,9.40
2019-02-27T18:52:44.688Z,9.30
2019-02-27T18:55:15.715Z,9.10
2019-02-27T18:57:49.028Z,9.10
2019-02-27T19:00:24.586Z,9.00
2019-02-27T19:03:08.131Z,9.00
2019-02-27T19:05:49.722Z,9.10
2019-02-27T19:08:18.760Z,9.10
2019-02-27T19:11:05.417Z,9.10
2019-02-27T19:13:36.938Z,9.00
2019-02-27T19:16:12.696Z,8.90
2019-02-27T19:19:13.824Z,8.90
2019-02-27T19:22:04.347Z,8.80
2019-02-27T19:24:36.412Z,8.70
2019-02-27T19:27:06.039Z,8.70
2019-02-27T19:29:35.721Z,8.60
2019-02-27T19:32:17.707Z,8.40
2019-02-27T19:34:48.003Z,8.40
2019-02-27T19:37:17.829Z,8.20
2019-02-27T19:39:47.325Z,8.10
2019-02-27T19:42:32.196Z,7.90
2019-02-27T19:45:04.170Z,7.90
2019-02-27T19:47:57.768Z,7.80
2019-02-27T19:50:29.018Z,7.70
2019-02-27T19:53:07.507Z,7.60
2019-02-27T19:55:54.090Z,7.60
2019-02-27T19:58:57.673Z,7.50
2019-02-27T20:02:55.262Z,7.40
2019-02-27T20:04:23.500Z,7.20
2019-02-27T20:06:52.860Z,7.10
2019-02-27T20:09:51.397Z,7.10
2019-02-27T20:12:22.374Z,7.00
2019-02-27T20:15:00.228Z,6.90
2019-02-27T20:17:32.879Z,6.80
2019-02-27T20:20:13.177Z,6.60
2019-02-27T20:22:45.464Z,6.50
2019-02-27T20:25:15.382Z,6.50
2019-02-27T20:27:47.033Z,6.40
2019-02-27T20:30:21.732Z,6.40
2019-02-27T20:32:52.785Z,6.30
2019-02-27T20:35:23.894Z,6.20
2019-02-27T20:37:53.164Z,6.00
2019-02-27T20:40:27.657Z,6.00
2019-02-27T20:43:01.425Z,5.80
2019-02-27T20:45:31.074Z,5.70
2019-02-27T20:48:03.411Z,5.70
2019-02-27T20:50:43.767Z,5.60
2019-02-27T20:53:13.402Z,5.60
2019-02-27T20:55:45.099Z,5.60
2019-02-27T20:58:21.930Z,5.50
2019-02-27T21:01:21.796Z,5.40
2019-02-27T21:09:33.504Z,5.20
2019-02-27T21:12:07.383Z,5.10
2019-02-27T21:14:57.899Z,5.20
2019-02-27T21:17:33.407Z,5.10
2019-02-27T21:20:03.828Z,4.90
2019-02-27T21:22:36.044Z,4.80
2019-02-27T21:25:05.748Z,4.80
2019-02-27T21:27:35.265Z,4.80
2019-02-27T21:30:10.876Z,4.70
2019-02-27T21:32:51.772Z,4.60
2019-02-27T21:35:28.731Z,4.50
2019-02-27T21:37:56.605Z,4.50
2019-02-27T21:40:36.146Z,4.50
2019-02-27T21:43:09.544Z,4.40
2019-02-27T21:45:38.836Z,4.40
2019-02-27T21:48:08.433Z,4.30
2019-02-27T21:50:39.843Z,4.30
2019-02-27T21:53:09.408Z,4.30
2019-02-27T21:55:44.706Z,4.20
2019-02-27T21:58:49.816Z,4.30
2019-02-27T22:01:21.991Z,4.10
2019-02-27T22:03:55.147Z,4.10
2019-02-27T22:06:27.477Z,4.00
2019-02-27T22:09:02.694Z,3.90
2019-02-27T22:12:01.145Z,4.10
2019-02-27T22:17:42.646Z,3.90
2019-02-27T22:20:15.543Z,3.70
2019-02-27T22:22:45.353Z,3.70
2019-02-27T22:25:21.137Z,3.60
2019-02-27T22:28:46.291Z,3.60
2019-02-27T22:31:15.748Z,3.50
2019-02-27T22:33:45.565Z,3.50
2019-02-27T22:36:15.122Z,3.50
2019-02-27T22:38:44.841Z,3.50
2019-02-27T22:41:14.378Z,3.40
2019-02-27T22:43:44.224Z,3.30
2019-02-27T22:46:32.208Z,3.20
2019-02-27T22:50:08.320Z,3.10
2019-02-27T22:52:37.544Z,3.10
2019-02-27T22:55:07.326Z,3.10
2019-02-27T23:04:08.161Z,3.10
2019-02-27T23:06:40.308Z,3.00
2019-02-27T23:09:11.677Z,3.00
2019-02-27T23:11:40.956Z,3.10
2019-02-27T23:14:10.244Z,2.90
2019-02-27T23:16:39.569Z,2.90
2019-02-27T23:19:12.234Z,2.90
2019-02-27T23:21:39.793Z,2.80
2019-02-27T23:24:09.960Z,2.70
2019-02-27T23:26:40.332Z,2.70
2019-02-27T23:29:10.165Z,2.80
2019-02-27T23:31:42.361Z,2.70
2019-02-27T23:34:11.808Z,2.70
2019-02-27T23:36:41.157Z,2.50
2019-02-27T23:39:10.667Z,2.50
2019-02-27T23:41:40.068Z,2.60
2019-02-27T23:44:09.368Z,2.50
2019-02-27T23:46:38.808Z,2.60
2019-02-27T23:49:08.246Z,2.50
2019-02-27T23:51:38.090Z,2.40
2019-02-27T23:54:07.566Z,2.30
2019-02-27T23:56:37.073Z,2.30
2019-02-27T23:59:06.631Z,2.30
